Time;durP1;ratioP1;P1;durP2;ratioP2;P2;SDS_P1;SDS_P2;PMS_P1;PMS_P2;Temp;Humidity;BMP_temperature;BMP_pressure;BME280_temperature;BME280_humidity;BME280_pressure;Samples;Min_cycle;Max_cycle;Signal;HPM_P1;HPM_P2
2021/05/04 00:00:47;;;;;;;2.88;1.90;;;;;;;;;;5034453;28;20040;-53
2021/05/04 00:03:12;;;;;;;2.17;1.73;;;;;;;;;;5035251;28;20029;-51
2021/05/04 00:05:38;;;;;;;2.80;2.00;;;;;;;;;;5034861;28;20532;-51
2021/05/04 00:08:03;;;;;;;4.65;1.98;;;;;;;;;;5036573;28;20495;-51
2021/05/04 00:10:28;;;;;;;2.35;1.88;;;;;;;;;;5027536;28;20254;-49
2021/05/04 00:12:54;;;;;;;5.43;2.30;;;;;;;;;;5031878;28;20024;-49
2021/05/04 00:15:19;;;;;;;1.73;1.25;;;;;;;;;;5033370;28;20115;-48
2021/05/04 00:17:44;;;;;;;4.22;2.40;;;;;;;;;;5033436;28;20026;-47
2021/05/04 00:20:10;;;;;;;3.33;1.77;;;;;;;;;;5035943;28;20033;-52
2021/05/04 00:22:35;;;;;;;191.85;19.10;;;;;;;;;;5033940;28;20056;-48
2021/05/04 00:25:01;;;;;;;5.18;2.08;;;;;;;;;;5030632;28;20033;-50
2021/05/04 00:27:26;;;;;;;1.88;1.70;;;;;;;;;;5033602;28;20041;-50
2021/05/04 00:29:51;;;;;;;6.80;1.92;;;;;;;;;;5033487;28;20033;-49
2021/05/04 00:32:17;;;;;;;2.13;1.75;;;;;;;;;;5036551;28;20048;-49
2021/05/04 00:34:42;;;;;;;7.25;2.08;;;;;;;;;;5034039;28;20128;-49
2021/05/04 00:37:07;;;;;;;2.85;1.50;;;;;;;;;;5032570;28;20368;-48
2021/05/04 00:39:37;;;;;;;253.05;39.00;;;;;;;;;;5036210;28;20017;-50
2021/05/04 00:42:03;;;;;;;2.40;2.05;;;;;;;;;;5034123;28;20028;-50
2021/05/04 00:44:28;;;;;;;4.00;1.80;;;;;;;;;;5033079;28;20052;-50
2021/05/04 00:46:54;;;;;;;3.25;1.35;;;;;;;;;;5035986;28;20041;-49
2021/05/04 00:49:19;;;;;;;5.38;1.77;;;;;;;;;;5029858;28;20030;-47
2021/05/04 00:51:45;;;;;;;2.13;1.52;;;;;;;;;;5037950;28;20036;-49
2021/05/04 00:54:10;;;;;;;6.55;1.92;;;;;;;;;;5035700;28;20033;-50
2021/05/04 00:56:36;;;;;;;4.65;2.00;;;;;;;;;;5036411;28;20095;-49
2021/05/04 00:59:03;;;;;;;2.22;1.38;;;;;;;;;;5035910;28;20072;-48
2021/05/04 01:01:30;;;;;;;5.10;2.58;;;;;;;;;;5036511;28;20032;-49
2021/05/04 01:03:55;;;;;;;4.68;1.88;;;;;;;;;;5036247;28;20047;-46
2021/05/04 01:06:20;;;;;;;5.90;1.52;;;;;;;;;;5035986;28;20024;-52
2021/05/04 01:08:46;;;;;;;5.07;2.83;;;;;;;;;;5030029;28;20056;-48
2021/05/04 01:11:11;;;;;;;3.13;1.95;;;;;;;;;;5038906;28;20357;-51
2021/05/04 01:13:36;;;;;;;3.45;1.73;;;;;;;;;;5026579;28;20469;-49
2021/05/04 01:16:04;;;;;;;2.17;1.55;;;;;;;;;;5035182;28;20036;-49
2021/05/04 01:18:29;;;;;;;3.20;1.40;;;;;;;;;;5030860;28;20179;-50
2021/05/04 01:20:57;;;;;;;5.53;1.95;;;;;;;;;;5039935;28;20116;-50
2021/05/04 01:23:29;;;;;;;1.95;1.75;;;;;;;;;;5032795;28;20021;-49
2021/05/04 01:25:54;;;;;;;2.70;1.35;;;;;;;;;;5035684;28;20041;-48
2021/05/04 01:28:22;;;;;;;1.23;0.75;;;;;;;;;;5032825;28;20033;-52
2021/05/04 01:30:50;;;;;;;1.30;0.95;;;;;;;;;;5035697;28;20025;-48
2021/05/04 01:33:16;;;;;;;3.35;1.48;;;;;;;;;;5029203;28;20066;-48
2021/05/04 01:35:43;;;;;;;1.65;0.88;;;;;;;;;;5032450;28;20025;-49
2021/05/04 01:38:09;;;;;;;4.38;1.75;;;;;;;;;;5035860;28;20037;-50
2021/05/04 01:40:34;;;;;;;2.17;1.38;;;;;;;;;;5034341;28;20489;-46
2021/05/04 01:42:59;;;;;;;3.15;1.90;;;;;;;;;;5034025;28;20048;-52
2021/05/04 01:45:24;;;;;;;1.75;1.05;;;;;;;;;;5033213;28;20033;-49
2021/05/04 01:47:50;;;;;;;33.13;4.70;;;;;;;;;;5033413;28;20469;-50
2021/05/04 01:50:15;;;;;;;2.05;1.48;;;;;;;;;;5030056;28;20029;-49
2021/05/04 01:52:41;;;;;;;1.17;0.68;;;;;;;;;;5031258;28;20076;-51
2021/05/04 01:55:07;;;;;;;1.35;0.90;;;;;;;;;;5034091;28;20070;-50
2021/05/04 01:57:32;;;;;;;3.47;2.42;;;;;;;;;;5030900;28;20466;-47
2021/05/04 01:59:58;;;;;;;3.42;2.00;;;;;;;;;;5032615;28;20033;-48
2021/05/04 02:02:23;;;;;;;3.15;2.53;;;;;;;;;;5031783;28;20458;-48
2021/05/04 02:04:48;;;;;;;3.38;2.38;;;;;;;;;;5032496;28;20029;-50
2021/05/04 02:07:14;;;;;;;3.80;2.30;;;;;;;;;;5034473;28;20021;-49
2021/05/04 02:09:42;;;;;;;2.00;1.80;;;;;;;;;;5033647;28;20037;-47
2021/05/04 02:12:07;;;;;;;3.83;1.73;;;;;;;;;;5033032;28;20922;-49
2021/05/04 02:14:33;;;;;;;1.38;0.98;;;;;;;;;;5027714;28;20121;-48
2021/05/04 02:16:58;;;;;;;2.70;1.85;;;;;;;;;;5033153;28;20112;-49
2021/05/04 02:19:23;;;;;;;3.60;1.60;;;;;;;;;;5032407;28;20053;-48
2021/05/04 02:21:49;;;;;;;2.65;1.67;;;;;;;;;;5030755;28;20126;-50
2021/05/04 02:24:14;;;;;;;6.68;1.98;;;;;;;;;;5032393;28;20090;-49
2021/05/04 02:26:40;;;;;;;3.97;1.75;;;;;;;;;;5031267;28;20719;-50
2021/05/04 02:29:05;;;;;;;3.17;1.38;;;;;;;;;;5032643;28;20109;-48
2021/05/04 02:31:31;;;;;;;1.77;0.98;;;;;;;;;;5025441;28;20030;-50
2021/05/04 02:33:56;;;;;;;1.50;0.82;;;;;;;;;;5030534;28;20030;-49
2021/05/04 02:36:21;;;;;;;3.60;1.90;;;;;;;;;;5032616;28;20096;-50
2021/05/04 02:38:46;;;;;;;2.95;1.98;;;;;;;;;;5036417;28;20033;-47
2021/05/04 02:41:15;;;;;;;2.72;2.22;;;;;;;;;;5032076;28;20497;-48
2021/05/04 02:43:40;;;;;;;2.15;1.10;;;;;;;;;;5027199;28;20092;-48
2021/05/04 02:46:06;;;;;;;5.28;1.90;;;;;;;;;;5035563;28;20029;-50
2021/05/04 02:48:38;;;;;;;4.05;2.20;;;;;;;;;;5031473;28;20029;-50
2021/05/04 02:51:03;;;;;;;4.10;1.55;;;;;;;;;;5029821;28;20100;-51
2021/05/04 02:53:29;;;;;;;7.53;2.55;;;;;;;;;;5034748;28;20021;-48
2021/05/04 02:55:54;;;;;;;3.90;2.08;;;;;;;;;;5033068;28;20025;-48
2021/05/04 02:58:19;;;;;;;3.38;2.20;;;;;;;;;;5033886;28;20044;-51
2021/05/04 03:00:44;;;;;;;5.53;2.25;;;;;;;;;;5027445;28;20076;-53
2021/05/04 03:03:11;;;;;;;9.52;1.85;;;;;;;;;;5035011;28;20029;-49
2021/05/04 03:05:37;;;;;;;2.47;1.88;;;;;;;;;;5029890;28;20034;-49
2021/05/04 03:08:02;;;;;;;2.97;2.67;;;;;;;;;;5036743;28;20057;-52
2021/05/04 03:10:27;;;;;;;3.22;2.15;;;;;;;;;;5024381;28;20023;-50
2021/05/04 03:12:53;;;;;;;4.70;2.40;;;;;;;;;;5032699;28;20078;-51
2021/05/04 03:15:18;;;;;;;2.92;2.17;;;;;;;;;;5032065;28;20583;-50
2021/05/04 03:17:44;;;;;;;4.32;2.08;;;;;;;;;;5030381;28;20017;-51
2021/05/04 03:20:09;;;;;;;4.68;2.38;;;;;;;;;;5028110;28;20056;-49
2021/05/04 03:22:34;;;;;;;9.95;2.00;;;;;;;;;;5026639;28;20410;-47
2021/05/04 03:25:00;;;;;;;3.95;1.48;;;;;;;;;;5034245;28;20045;-50
2021/05/04 03:27:25;;;;;;;2.05;1.40;;;;;;;;;;5033173;28;20029;-49
2021/05/04 03:29:50;;;;;;;9.65;3.90;;;;;;;;;;5037014;28;20056;-47
2021/05/04 03:32:15;;;;;;;6.00;3.00;;;;;;;;;;5033079;28;20435;-51
2021/05/04 03:34:41;;;;;;;5.78;2.08;;;;;;;;;;5032379;28;20085;-53
2021/05/04 03:37:06;;;;;;;9.98;1.48;;;;;;;;;;5032290;28;20419;-53
2021/05/04 03:39:32;;;;;;;2.53;1.67;;;;;;;;;;5033433;28;20104;-50
2021/05/04 03:41:57;;;;;;;2.45;2.10;;;;;;;;;;5039262;28;20030;-50
2021/05/04 03:44:23;;;;;;;6.18;1.75;;;;;;;;;;5035320;28;20033;-51
2021/05/04 03:46:48;;;;;;;2.15;1.20;;;;;;;;;;5037226;28;20028;-47
2021/05/04 03:49:13;;;;;;;4.15;2.28;;;;;;;;;;5033699;28;20034;-48
2021/05/04 03:51:39;;;;;;;3.00;1.80;;;;;;;;;;5032568;28;20138;-51
2021/05/04 03:54:05;;;;;;;1.92;1.65;;;;;;;;;;5035011;28;20021;-51
2021/05/04 03:56:30;;;;;;;3.08;1.55;;;;;;;;;;5037770;28;20029;-48
2021/05/04 03:58:55;;;;;;;2.97;2.15;;;;;;;;;;5031885;28;20024;-52
2021/05/04 04:01:21;;;;;;;2.17;1.83;;;;;;;;;;5033632;28;20033;-49
2021/05/04 04:03:50;;;;;;;4.18;1.75;;;;;;;;;;5034631;28;20496;-49
2021/05/04 04:06:15;;;;;;;2.72;1.70;;;;;;;;;;5033675;28;20608;-50
2021/05/04 04:08:41;;;;;;;3.20;2.55;;;;;;;;;;5033782;28;20055;-52
2021/05/04 04:11:09;;;;;;;5.00;3.28;;;;;;;;;;5032771;28;20036;-51
2021/05/04 04:13:34;;;;;;;2.97;1.48;;;;;;;;;;5037293;28;20133;-47
2021/05/04 04:16:00;;;;;;;10.55;3.20;;;;;;;;;;5038932;28;20453;-48
2021/05/04 04:18:26;;;;;;;3.60;2.45;;;;;;;;;;5034512;28;20025;-49
2021/05/04 04:20:52;;;;;;;5.32;1.95;;;;;;;;;;5035078;28;20040;-51
2021/05/04 04:23:17;;;;;;;3.03;2.08;;;;;;;;;;5033277;28;20032;-50
2021/05/04 04:25:42;;;;;;;4.05;2.60;;;;;;;;;;5034320;28;20022;-52
2021/05/04 04:28:08;;;;;;;4.60;1.98;;;;;;;;;;5037302;28;20102;-48
2021/05/04 04:30:33;;;;;;;4.95;2.72;;;;;;;;;;5034573;28;20033;-48
2021/05/04 04:32:58;;;;;;;5.13;2.15;;;;;;;;;;5037085;28;20444;-49
2021/05/04 04:35:24;;;;;;;4.15;2.85;;;;;;;;;;5034294;28;20009;-53
2021/05/04 04:37:49;;;;;;;3.08;1.58;;;;;;;;;;5040039;28;20412;-50
2021/05/04 04:40:14;;;;;;;4.35;1.80;;;;;;;;;;5031777;28;20080;-51
2021/05/04 04:42:40;;;;;;;3.90;1.75;;;;;;;;;;5032505;28;20029;-48
2021/05/04 04:45:05;;;;;;;2.67;1.38;;;;;;;;;;5036527;28;20022;-48
2021/05/04 04:47:31;;;;;;;6.03;2.35;;;;;;;;;;5035793;28;20476;-47
2021/05/04 04:49:56;;;;;;;7.50;2.00;;;;;;;;;;5036149;28;20049;-50
2021/05/04 04:52:22;;;;;;;4.78;1.85;;;;;;;;;;5035962;28;20029;-52
2021/05/04 04:54:47;;;;;;;4.35;2.10;;;;;;;;;;5040448;28;20045;-51
2021/05/04 04:57:12;;;;;;;4.28;2.20;;;;;;;;;;5038781;28;20108;-50
2021/05/04 04:59:37;;;;;;;5.25;3.03;;;;;;;;;;5036170;28;20484;-51
2021/05/04 05:02:03;;;;;;;9.60;2.17;;;;;;;;;;5038063;28;20041;-51
2021/05/04 05:04:28;;;;;;;3.45;1.63;;;;;;;;;;5037830;28;20502;-52
2021/05/04 05:06:53;;;;;;;4.88;3.35;;;;;;;;;;5031661;28;20075;-50
2021/05/04 05:09:19;;;;;;;8.05;2.38;;;;;;;;;;5035229;28;20079;-52
2021/05/04 05:11:45;;;;;;;4.47;1.80;;;;;;;;;;5042276;28;20017;-48
2021/05/04 05:14:10;;;;;;;3.03;1.92;;;;;;;;;;5032463;28;20029;-48
2021/05/04 05:16:36;;;;;;;7.93;2.60;;;;;;;;;;5040561;28;20537;-51
2021/05/04 05:19:02;;;;;;;2.15;1.67;;;;;;;;;;5034674;28;20035;-50
2021/05/04 05:21:27;;;;;;;9.07;3.58;;;;;;;;;;5035238;28;20049;-52
2021/05/04 05:23:53;;;;;;;4.28;3.10;;;;;;;;;;5033623;28;20030;-47
2021/05/04 05:26:18;;;;;;;6.13;3.22;;;;;;;;;;5033609;28;20025;-48
2021/05/04 05:28:44;;;;;;;3.58;1.80;;;;;;;;;;5036361;28;20401;-47
2021/05/04 05:31:09;;;;;;;3.80;2.22;;;;;;;;;;5032819;28;20098;-49
2021/05/04 05:33:34;;;;;;;3.88;2.53;;;;;;;;;;5037186;28;20032;-53
2021/05/04 05:36:00;;;;;;;5.68;1.85;;;;;;;;;;5033150;28;20146;-51
2021/05/04 05:38:25;;;;;;;2.83;1.98;;;;;;;;;;5032698;28;20099;-51
2021/05/04 05:40:51;;;;;;;6.68;2.45;;;;;;;;;;5030135;28;20044;-51
2021/05/04 05:43:16;;;;;;;3.83;1.88;;;;;;;;;;5032420;28;20043;-50
2021/05/04 05:45:41;;;;;;;5.35;1.63;;;;;;;;;;5029149;28;20450;-50
2021/05/04 05:48:07;;;;;;;4.13;1.90;;;;;;;;;;5031173;28;20030;-50
2021/05/04 05:50:32;;;;;;;2.83;1.27;;;;;;;;;;5031312;28;20021;-51
2021/05/04 05:52:57;;;;;;;3.38;2.35;;;;;;;;;;5031894;28;20021;-52
2021/05/04 05:55:23;;;;;;;2.47;1.80;;;;;;;;;;5035198;28;20021;-50
2021/05/04 05:57:48;;;;;;;4.25;2.65;;;;;;;;;;5033628;28;20025;-51
2021/05/04 06:00:16;;;;;;;14.05;3.05;;;;;;;;;;5035070;28;20397;-49
2021/05/04 06:02:42;;;;;;;9.30;3.55;;;;;;;;;;5030088;28;20075;-49
2021/05/04 06:05:07;;;;;;;12.77;3.83;;;;;;;;;;5031463;28;20065;-48
2021/05/04 06:07:33;;;;;;;18.45;8.63;;;;;;;;;;5031083;28;20060;-49
2021/05/04 06:09:58;;;;;;;22.50;15.23;;;;;;;;;;5033378;28;20104;-48
2021/05/04 06:12:23;;;;;;;43.42;24.80;;;;;;;;;;5029493;28;20662;-48
2021/05/04 06:14:49;;;;;;;7.93;7.03;;;;;;;;;;5031605;28;20467;-46
2021/05/04 06:17:14;;;;;;;4.15;2.95;;;;;;;;;;5035875;28;20082;-42
2021/05/04 06:19:39;;;;;;;5.75;2.95;;;;;;;;;;5032863;28;20498;-42
2021/05/04 06:22:04;;;;;;;3.75;3.20;;;;;;;;;;5028996;28;20415;-43
2021/05/04 06:24:30;;;;;;;5.00;3.38;;;;;;;;;;5031647;28;20030;-42
2021/05/04 06:26:55;;;;;;;9.30;4.47;;;;;;;;;;5032664;28;20033;-42
2021/05/04 06:29:20;;;;;;;4.40;3.22;;;;;;;;;;5030968;28;20521;-44
2021/05/04 06:31:50;;;;;;;6.95;3.45;;;;;;;;;;5031975;28;20055;-44
2021/05/04 06:34:16;;;;;;;4.40;1.90;;;;;;;;;;5029400;28;20049;-48
2021/05/04 06:36:41;;;;;;;2.47;1.88;;;;;;;;;;5033833;28;20060;-50
2021/05/04 06:39:06;;;;;;;3.85;2.30;;;;;;;;;;5033156;28;20207;-45
2021/05/04 06:41:35;;;;;;;5.85;4.10;;;;;;;;;;5038452;28;20098;-47
2021/05/04 06:44:03;;;;;;;8.60;2.60;;;;;;;;;;5023369;28;20096;-52
2021/05/04 06:46:29;;;;;;;2.63;1.60;;;;;;;;;;5021543;28;20022;-52
2021/05/04 06:48:55;;;;;;;6.43;2.63;;;;;;;;;;5032405;28;20033;-49
2021/05/04 06:51:20;;;;;;;7.50;4.95;;;;;;;;;;5026195;28;20464;-46
2021/05/04 06:53:46;;;;;;;5.30;4.00;;;;;;;;;;5028522;28;20056;-45
2021/05/04 06:56:11;;;;;;;12.18;3.83;;;;;;;;;;5028173;28;20451;-46
2021/05/04 06:58:36;;;;;;;16.58;3.58;;;;;;;;;;5035430;28;20036;-46
2021/05/04 07:01:01;;;;;;;14.50;7.97;;;;;;;;;;5023894;28;20032;-44
2021/05/04 07:03:27;;;;;;;18.05;8.27;;;;;;;;;;5030473;28;20033;-45
2021/05/04 07:05:52;;;;;;;22.45;7.95;;;;;;;;;;5023901;28;20490;-44
2021/05/04 07:08:17;;;;;;;13.77;9.20;;;;;;;;;;5029069;28;20152;-43
2021/05/04 07:10:42;;;;;;;10.70;5.68;;;;;;;;;;5031234;28;20106;-42
2021/05/04 07:13:17;;;;;;;5.72;4.78;;;;;;;;;;5031902;28;20032;-51
2021/05/04 07:15:44;;;;;;;7.45;6.70;;;;;;;;;;5033977;28;20487;-49
2021/05/04 07:18:10;;;;;;;8.98;5.13;;;;;;;;;;5040856;28;20029;-50
2021/05/04 07:20:36;;;;;;;9.45;4.40;;;;;;;;;;5038955;28;20028;-48
2021/05/04 07:23:04;;;;;;;10.40;3.17;;;;;;;;;;5029014;28;20056;-46
2021/05/04 07:25:29;;;;;;;4.30;2.03;;;;;;;;;;5031426;28;20053;-48
2021/05/04 07:27:55;;;;;;;2.90;1.85;;;;;;;;;;5034890;28;20068;-50
2021/05/04 07:30:21;;;;;;;3.08;2.33;;;;;;;;;;5034532;28;20064;-47
2021/05/04 07:32:46;;;;;;;5.82;1.40;;;;;;;;;;5034534;28;20041;-46
2021/05/04 07:35:12;;;;;;;3.00;1.40;;;;;;;;;;5033577;28;20052;-50
2021/05/04 07:37:39;;;;;;;13.07;2.67;;;;;;;;;;5036059;28;20058;-50
2021/05/04 07:40:05;;;;;;;5.85;2.47;;;;;;;;;;5031828;28;20034;-50
2021/05/04 07:42:30;;;;;;;4.28;2.15;;;;;;;;;;5033275;28;20021;-48
2021/05/04 07:44:55;;;;;;;7.30;2.63;;;;;;;;;;5032321;28;20092;-51
2021/05/04 07:47:21;;;;;;;4.25;1.40;;;;;;;;;;5035343;28;20438;-53
2021/05/04 07:49:47;;;;;;;10.43;1.88;;;;;;;;;;5032053;28;20390;-48
2021/05/04 07:52:13;;;;;;;8.80;3.17;;;;;;;;;;5030007;28;20672;-57
2021/05/04 07:54:39;;;;;;;11.20;2.78;;;;;;;;;;5032072;28;20064;-57
2021/05/04 07:57:04;;;;;;;4.72;2.35;;;;;;;;;;5036886;28;20029;-57
2021/05/04 07:59:30;;;;;;;6.82;5.65;;;;;;;;;;5029211;28;20255;-58
2021/05/04 08:01:56;;;;;;;2.97;1.50;;;;;;;;;;5025950;28;20024;-58
2021/05/04 08:04:21;;;;;;;3.20;1.85;;;;;;;;;;5032973;28;20033;-57
2021/05/04 08:06:46;;;;;;;5.70;2.38;;;;;;;;;;5029028;28;20029;-58
2021/05/04 08:09:12;;;;;;;3.20;1.73;;;;;;;;;;5032284;28;20025;-57
2021/05/04 08:11:37;;;;;;;4.90;1.88;;;;;;;;;;5033937;28;20110;-57
2021/05/04 08:14:04;;;;;;;9.27;5.20;;;;;;;;;;5035142;28;20048;-58
2021/05/04 08:16:31;;;;;;;23.17;7.03;;;;;;;;;;5033159;28;20630;-57
2021/05/04 08:18:56;;;;;;;8.43;2.65;;;;;;;;;;5032100;28;20035;-57
2021/05/04 08:21:22;;;;;;;7.53;3.88;;;;;;;;;;5031410;28;20496;-57
2021/05/04 08:23:47;;;;;;;4.28;3.53;;;;;;;;;;5031852;28;20400;-58
2021/05/04 08:26:13;;;;;;;4.68;3.50;;;;;;;;;;5029307;28;20033;-57
2021/05/04 08:28:39;;;;;;;4.70;3.70;;;;;;;;;;5035973;28;20144;-58
2021/05/04 08:31:07;;;;;;;4.20;2.45;;;;;;;;;;5032574;28;20033;-59
2021/05/04 08:33:35;;;;;;;8.80;2.70;;;;;;;;;;5030403;28;20483;-59
2021/05/04 08:36:00;;;;;;;6.22;3.40;;;;;;;;;;5032378;28;20064;-58
2021/05/04 08:38:26;;;;;;;5.32;3.67;;;;;;;;;;5032169;28;20049;-58
2021/05/04 08:40:51;;;;;;;3.55;2.40;;;;;;;;;;5030171;28;20028;-58
2021/05/04 08:43:23;;;;;;;4.28;2.33;;;;;;;;;;5035540;28;20021;-57
2021/05/04 08:45:56;;;;;;;4.63;2.67;;;;;;;;;;5026310;28;20067;-58
2021/05/04 08:48:22;;;;;;;1.05;0.73;;;;;;;;;;5030867;28;20040;-58
2021/05/04 08:50:48;;;;;;;3.53;2.03;;;;;;;;;;5029699;28;20025;-59
2021/05/04 08:53:14;;;;;;;2.88;1.63;;;;;;;;;;5030715;28;20440;-41
2021/05/04 08:55:58;;;;;;;1.10;0.82;;;;;;;;;;5029166;28;20445;-44
2021/05/04 08:58:24;;;;;;;1.50;1.33;;;;;;;;;;5033003;28;20028;-40
2021/05/04 09:00:49;;;;;;;1.20;0.98;;;;;;;;;;5026185;28;20025;-38
2021/05/04 09:03:23;;;;;;;2.85;1.58;;;;;;;;;;5033172;28;20045;-42
2021/05/04 09:06:36;;;;;;;3.25;0.88;;;;;;;;;;5030971;28;20033;-39
2021/05/04 09:08:52;;;;;;;5.40;1.30;;;;;;;;;;5017385;28;20049;-44
2021/05/04 09:11:27;;;;;;;2.55;1.90;;;;;;;;;;5031852;28;20029;-41
2021/05/04 09:17:49;;;;;;;2.67;1.30;;;;;;;;;;4965604;28;20037;-39
2021/05/04 09:22:34;;;;;;;2.85;2.05;;;;;;;;;;5013065;28;20055;-41
2021/05/04 09:25:00;;;;;;;1.95;0.93;;;;;;;;;;5032885;28;20037;-43
2021/05/04 09:27:25;;;;;;;3.17;0.95;;;;;;;;;;5027814;28;20032;-43
2021/05/04 09:29:52;;;;;;;2.45;1.13;;;;;;;;;;5034311;28;20026;-39
2021/05/04 09:32:18;;;;;;;4.68;1.98;;;;;;;;;;5031981;28;20107;-43
2021/05/04 09:34:59;;;;;;;3.75;1.77;;;;;;;;;;5030103;28;20164;-41
2021/05/04 09:37:25;;;;;;;4.18;1.50;;;;;;;;;;5027893;28;20029;-48
2021/05/04 09:39:50;;;;;;;3.85;1.60;;;;;;;;;;5031417;28;20099;-38
2021/05/04 09:42:16;;;;;;;4.88;2.28;;;;;;;;;;5034054;28;20037;-40
2021/05/04 09:44:46;;;;;;;2.53;2.00;;;;;;;;;;5030795;28;20206;-42
2021/05/04 09:47:12;;;;;;;2.63;1.67;;;;;;;;;;5032787;28;20024;-37
2021/05/04 09:49:38;;;;;;;5.95;1.98;;;;;;;;;;5037727;28;20033;-40
2021/05/04 09:52:58;;;;;;;8.38;2.92;;;;;;;;;;5030306;28;20026;-39
2021/05/04 09:55:04;;;;;;;1.80;0.95;;;;;;;;;;5018491;28;20033;-39
2021/05/04 09:57:35;;;;;;;3.25;1.90;;;;;;;;;;5029881;28;20059;-40
2021/05/04 10:00:00;;;;;;;;;;;;;;;;;;5028632;28;20551;-44
2021/05/04 10:02:27;;;;;;;5.10;2.83;;;;;;;;;;5031051;28;19913;-42
2021/05/04 10:04:53;;;;;;;1.65;1.00;;;;;;;;;;5029835;28;20025;-42
2021/05/04 10:07:22;;;;;;;15.95;2.08;;;;;;;;;;5034470;28;20528;-40
2021/05/04 10:09:48;;;;;;;3.55;2.42;;;;;;;;;;5029319;28;20103;-39
2021/05/04 10:12:14;;;;;;;5.93;0.98;;;;;;;;;;5033937;28;20389;-39
2021/05/04 10:14:42;;;;;;;1.65;0.73;;;;;;;;;;5029215;28;20017;-39
2021/05/04 10:17:08;;;;;;;13.98;12.57;;;;;;;;;;5027415;28;20056;-42
2021/05/04 10:19:37;;;;;;;9.60;4.57;;;;;;;;;;5035688;28;20017;-43
2021/05/04 10:22:04;;;;;;;12.70;2.95;;;;;;;;;;5036603;28;20053;-43
2021/05/04 10:24:29;;;;;;;10.15;1.70;;;;;;;;;;5028219;28;20490;-41
2021/05/04 10:26:55;;;;;;;4.88;1.17;;;;;;;;;;5027002;28;20042;-37
2021/05/04 10:29:22;;;;;;;8.50;3.75;;;;;;;;;;5027903;28;20027;-39
2021/05/04 10:31:48;;;;;;;4.05;2.08;;;;;;;;;;5029262;28;20075;-43
2021/05/04 10:34:23;;;;;;;4.95;1.98;;;;;;;;;;5028327;28;20365;-38
2021/05/04 10:36:48;;;;;;;8.07;2.58;;;;;;;;;;5029421;28;20496;-38
2021/05/04 10:39:31;;;;;;;3.72;2.33;;;;;;;;;;5032696;28;20030;-43
2021/05/04 10:42:00;;;;;;;5.15;2.20;;;;;;;;;;5015041;28;20444;-39
2021/05/04 10:44:25;;;;;;;5.93;2.22;;;;;;;;;;5035449;28;20478;-42
2021/05/04 10:46:51;;;;;;;12.10;3.15;;;;;;;;;;5039284;28;20116;-40
2021/05/04 10:49:17;;;;;;;8.40;2.72;;;;;;;;;;5034682;28;20040;-39
2021/05/04 10:51:44;;;;;;;13.57;1.67;;;;;;;;;;5034854;28;20027;-42
2021/05/04 10:54:10;;;;;;;6.15;2.55;;;;;;;;;;5036869;28;20100;-40
2021/05/04 10:56:36;;;;;;;8.45;2.13;;;;;;;;;;5031872;28;20041;-41
2021/05/04 10:59:02;;;;;;;2.58;1.45;;;;;;;;;;5030335;28;20442;-39
2021/05/04 11:01:27;;;;;;;5.75;2.30;;;;;;;;;;5033361;28;20061;-39
2021/05/04 11:03:53;;;;;;;4.57;1.27;;;;;;;;;;5028062;28;20033;-42
2021/05/04 11:06:21;;;;;;;5.00;2.15;;;;;;;;;;5034894;28;20040;-39
2021/05/04 11:08:47;;;;;;;3.35;1.95;;;;;;;;;;5031509;28;20037;-39
2021/05/04 11:11:28;;;;;;;1.52;1.17;;;;;;;;;;5034928;28;20676;-43
2021/05/04 11:14:00;;;;;;;3.15;1.30;;;;;;;;;;5033354;28;20107;-46
2021/05/04 11:16:33;;;;;;;0.90;0.63;;;;;;;;;;5038449;28;20389;-41
2021/05/04 11:19:05;;;;;;;4.25;2.17;;;;;;;;;;5033693;28;20082;-45
2021/05/04 11:21:40;;;;;;;2.92;1.95;;;;;;;;;;5036788;28;20053;-48
2021/05/04 11:24:11;;;;;;;11.88;4.20;;;;;;;;;;5029136;28;20049;-46
2021/05/04 11:26:45;;;;;;;4.15;2.78;;;;;;;;;;5027661;28;20040;-45
2021/05/04 11:29:10;;;;;;;7.95;2.05;;;;;;;;;;5023730;28;20034;-44
2021/05/04 11:31:36;;;;;;;3.47;1.42;;;;;;;;;;5031154;28;20504;-49
2021/05/04 11:34:21;;;;;;;2.85;1.92;;;;;;;;;;5549345;22;20049;-48
2021/05/04 11:36:47;;;;;;;6.78;1.30;;;;;;;;;;5045861;28;20507;-46
2021/05/04 11:39:12;;;;;;;4.53;2.13;;;;;;;;;;5047305;28;20025;-46
2021/05/04 11:41:37;;;;;;;16.35;1.83;;;;;;;;;;5047823;28;20049;-46
2021/05/04 11:44:03;;;;;;;3.05;1.55;;;;;;;;;;5047615;28;20400;-47
2021/05/04 11:46:28;;;;;;;7.03;1.55;;;;;;;;;;5047939;28;20033;-48
2021/05/04 11:49:00;;;;;;;3.80;2.58;;;;;;;;;;5048226;28;20476;-46
2021/05/04 11:51:25;;;;;;;8.43;1.85;;;;;;;;;;5047758;28;20057;-46
2021/05/04 11:53:53;;;;;;;9.48;1.45;;;;;;;;;;5028115;28;20056;-42
2021/05/04 11:56:19;;;;;;;3.00;1.65;;;;;;;;;;5044877;28;20028;-40
2021/05/04 11:58:45;;;;;;;2.35;1.58;;;;;;;;;;5048177;28;20033;-44
2021/05/04 12:01:10;;;;;;;4.07;1.98;;;;;;;;;;5028523;28;20129;-45
2021/05/04 12:03:35;;;;;;;5.95;3.15;;;;;;;;;;5046737;28;20032;-48
2021/05/04 12:06:02;;;;;;;7.78;2.13;;;;;;;;;;5048293;28;20032;-43
2021/05/04 12:08:27;;;;;;;4.07;1.55;;;;;;;;;;5046927;28;20037;-44
2021/05/04 12:10:53;;;;;;;12.63;2.53;;;;;;;;;;5047509;28;20487;-47
2021/05/04 12:13:19;;;;;;;7.00;1.98;;;;;;;;;;5046063;28;20111;-46
2021/05/04 12:15:45;;;;;;;2.83;1.60;;;;;;;;;;5046811;28;20484;-42
2021/05/04 12:18:17;;;;;;;4.75;1.60;;;;;;;;;;5047203;28;20029;-44
2021/05/04 12:20:50;;;;;;;7.93;4.35;;;;;;;;;;5046113;28;20033;-42
2021/05/04 12:23:25;;;;;;;4.72;1.73;;;;;;;;;;5047128;28;20032;-46
2021/05/04 12:25:52;;;;;;;8.45;1.10;;;;;;;;;;5046341;28;20119;-41
2021/05/04 12:28:32;;;;;;;1.30;0.65;;;;;;;;;;5046710;28;20028;-43
2021/05/04 12:31:04;;;;;;;2.42;1.65;;;;;;;;;;5046385;28;20040;-43
2021/05/04 12:33:40;;;;;;;5.18;2.13;;;;;;;;;;5045559;28;20017;-41
2021/05/04 12:38:43;;;;;;;1.08;1.00;;;;;;;;;;5047474;28;20017;-45
2021/05/04 12:41:11;;;;;;;3.78;1.58;;;;;;;;;;5047150;28;20033;-49
2021/05/04 12:43:42;;;;;;;1.02;0.55;;;;;;;;;;5046615;28;20025;-43
2021/05/04 12:46:23;;;;;;;5.20;1.38;;;;;;;;;;5046558;28;20041;-45
2021/05/04 12:48:51;;;;;;;1.70;0.95;;;;;;;;;;5046305;28;20032;-46
2021/05/04 12:51:21;;;;;;;4.75;0.82;;;;;;;;;;5045681;28;20432;-42
2021/05/04 12:53:46;;;;;;;6.43;1.95;;;;;;;;;;5047498;28;20100;-42
2021/05/04 12:56:18;;;;;;;2.83;1.50;;;;;;;;;;5047314;28;20049;-50
2021/05/04 12:58:54;;;;;;;0.52;0.30;;;;;;;;;;5046736;28;20016;-71
2021/05/04 13:01:29;;;;;;;17.17;2.00;;;;;;;;;;5045108;28;20431;-67
2021/05/04 13:03:55;;;;;;;3.17;1.27;;;;;;;;;;5045658;28;20421;-69
2021/05/04 13:06:26;;;;;;;2.25;1.27;;;;;;;;;;5046376;28;20029;-67
2021/05/04 13:09:01;;;;;;;3.08;1.25;;;;;;;;;;5046954;28;20032;-59
2021/05/04 13:11:43;;;;;;;2.88;1.17;;;;;;;;;;5045310;28;20121;-57
2021/05/04 13:14:31;;;;;;;6.32;1.83;;;;;;;;;;5043643;28;20029;-57
2021/05/04 13:17:30;;;;;;;2.15;1.00;;;;;;;;;;5046340;28;20112;-58
2021/05/04 13:31:04;;;;;;;6.43;1.73;;;;;;;;;;5031244;28;20647;-59
2021/05/04 13:33:30;;;;;;;9.40;2.33;;;;;;;;;;5044234;28;20017;-62
2021/05/04 13:49:03;;;;;;;15.52;2.90;;;;;;;;;;5044807;28;20032;-53
2021/05/04 13:51:28;;;;;;;6.00;3.05;;;;;;;;;;5045409;28;20032;-55
2021/05/04 13:53:54;;;;;;;7.82;2.97;;;;;;;;;;5045135;28;20204;-52
2021/05/04 13:56:19;;;;;;;3.45;2.33;;;;;;;;;;5045403;28;20033;-56
2021/05/04 13:58:44;;;;;;;3.38;1.88;;;;;;;;;;5045169;28;20128;-57
2021/05/04 14:27:15;;;;;;;1.55;1.45;;;;;;;;;;5045704;28;20489;-58
2021/05/04 14:29:40;;;;;;;4.13;1.10;;;;;;;;;;5045625;28;20037;-59
2021/05/04 14:32:05;;;;;;;6.32;1.65;;;;;;;;;;5045154;28;20584;-59
2021/05/04 14:34:33;;;;;;;6.15;1.88;;;;;;;;;;5045708;28;20068;-60
2021/05/04 14:39:40;;;;;;;9.13;2.35;;;;;;;;;;5045111;28;20108;-60
2021/05/04 15:02:51;;;;;;;2.65;2.22;;;;;;;;;;5044987;28;20025;-63
2021/05/04 15:05:19;;;;;;;1.30;1.20;;;;;;;;;;5046028;28;20097;-62
2021/05/04 15:07:45;;;;;;;5.68;1.52;;;;;;;;;;5043661;28;20492;-62
2021/05/04 15:10:11;;;;;;;8.15;1.50;;;;;;;;;;5043020;28;20083;-62
2021/05/04 15:12:36;;;;;;;4.15;1.88;;;;;;;;;;5046175;28;20146;-62
2021/05/04 15:15:03;;;;;;;1.80;0.98;;;;;;;;;;5043616;28;20029;-64
2021/05/04 15:22:57;;;;;;;8.98;1.45;;;;;;;;;;5045068;28;20134;-62
2021/05/04 15:25:22;;;;;;;6.53;2.42;;;;;;;;;;5044514;28;20488;-61
2021/05/04 15:27:49;;;;;;;2.55;1.27;;;;;;;;;;5044882;28;20029;-62
2021/05/04 15:30:15;;;;;;;4.30;1.42;;;;;;;;;;5048074;28;20028;-59
2021/05/04 15:32:49;;;;;;;12.82;1.50;;;;;;;;;;5048464;28;20029;-63
2021/05/04 15:35:15;;;;;;;5.97;1.63;;;;;;;;;;5047421;28;20057;-62
2021/05/04 15:37:40;;;;;;;4.00;1.52;;;;;;;;;;5046733;28;20036;-58
2021/05/04 15:40:06;;;;;;;4.18;2.22;;;;;;;;;;5049019;28;20025;-60
2021/05/04 15:42:31;;;;;;;5.00;1.38;;;;;;;;;;5048459;28;20025;-62
2021/05/04 15:45:03;;;;;;;1.42;1.00;;;;;;;;;;5048574;28;20021;-63
2021/05/04 15:50:06;;;;;;;8.48;1.35;;;;;;;;;;5047443;28;20009;-62
2021/05/04 16:03:24;;;;;;;2.63;1.33;;;;;;;;;;5048108;28;20017;-60
2021/05/04 16:08:49;;;;;;;2.03;1.13;;;;;;;;;;5046278;28;20044;-65
2021/05/04 16:11:15;;;;;;;3.00;1.60;;;;;;;;;;5036881;28;20092;-62
2021/05/04 16:13:40;;;;;;;1.27;0.90;;;;;;;;;;5042006;28;20136;-61
2021/05/04 16:16:06;;;;;;;2.67;1.42;;;;;;;;;;5044847;28;20064;-63
2021/05/04 16:18:32;;;;;;;2.50;1.35;;;;;;;;;;5047362;28;20533;-65
2021/05/04 16:23:33;;;;;;;5.13;1.65;;;;;;;;;;5048309;28;20079;-65
2021/05/04 16:28:35;;;;;;;2.25;1.58;;;;;;;;;;5048034;28;20032;-65